Jubilant Success — 3EVY2 — position and weather

sailwx.info

Track history (hours):
 
Tides and Currents Weather Stations Pressure Air Temp Water Temp Dewpoint Dewpoint Depression Visibility Wind Speed Wind Dir Waves Ship Positions

Jubilant Success

Last reported at 2018-Jun-20 17:30 UTC. Time now 2018-Jun-25 17:40 UTC.
Position S 32°36' E 152°51'.

Length 240 m; draft 14.7 m.

Type: Cargo ship. MMSI: 373784000.

Date/timePositionNaut miles runAvg speedWind from/ knotsBaromVisibWave heightAir tempDewpointWater temp
2018-Jun-20 17:30S 32°36' E 152°51'611.3
2018-Jun-20 17:00S 32°41' E 152°49'711.4
2018-Jun-20 16:21S 32°48' E 152°45'611.7
2018-Jun-20 15:52S 32°52' E 152°42'411.7
2018-Jun-20 15:30S 32°56' E 152°39'611.8
2018-Jun-20 14:58S 33°01' E 152°35'712.0
2018-Jun-20 14:25S 33°06' E 152°29'611.7
2018-Jun-20 13:55S 33°11' E 152°25'511.5
2018-Jun-20 13:30S 33°14' E 152°21'4110.6
2018-Jun-20 09:40S 33°49' E 151°56'3 9.0
2018-Jun-20 09:18S 33°52' E 151°54'3 8.7
2018-Jun-20 09:00S 33°54' E 151°52'4 8.6
2018-Jun-20 08:29S 33°58' E 151°49'4 8.5
2018-Jun-20 08:00S 34°01' E 151°46'4 8.3
2018-Jun-20 07:29S 34°05' E 151°43'4 8.5
2018-Jun-20 07:00S 34°08' E 151°41'  
2018-Jun-16 16:35S 34°21' E 151°29'111.0
2018-Jun-16 16:30S 34°20' E 151°30'612.0
2018-Jun-16 16:00S 34°15' E 151°35'612.2
2018-Jun-16 15:30S 34°10' E 151°39'612.0
2018-Jun-16 15:00S 34°05' E 151°43'612.4
2018-Jun-16 14:30S 34°00' E 151°47'612.4
2018-Jun-16 14:00S 33°55' E 151°51'611.9
2018-Jun-16 13:30S 33°50' E 151°55'3611.9
2018-Jun-16 10:27S 33°20' E 152°20'611.6
2018-Jun-16 09:57S 33°15' E 152°24'711.3
2018-Jun-16 09:22S 33°09' E 152°28'411.2
2018-Jun-16 09:00S 33°06' E 152°31'511.2
2018-Jun-16 08:30S 33°02' E 152°34'611.3
2018-Jun-16 08:00S 32°57' E 152°38'611.6
2018-Jun-16 07:30S 32°52' E 152°42'611.3
2018-Jun-16 07:00S 32°47' E 152°46'611.9
2018-Jun-16 06:30S 32°42' E 152°49'612.1
2018-Jun-16 06:00S 32°36' E 152°51'30813.8
2018-Jun-15 07:46S 27°35' E 154°05'  
Track history (hours):
 
Tides and Currents Weather Stations Pressure Air Temp Water Temp Dewpoint Dewpoint Depression Visibility Wind Speed Wind Dir Waves Ship Positions

Jubilant Success

Last reported at 2018-Jun-20 17:30 UTC. Time now 2018-Jun-25 17:40 UTC.
Position S 32°36' E 152°51'.

Length 240 m; draft 14.7 m.

Type: Cargo ship. MMSI: 373784000.

Date/timePositionNaut miles runAvg speedWind from/ knotsBaromVisibWave heightAir tempDewpointWater temp
2018-Jun-20 17:30S 32°36' E 152°51'611.3
2018-Jun-20 17:00S 32°41' E 152°49'711.4
2018-Jun-20 16:21S 32°48' E 152°45'611.7
2018-Jun-20 15:52S 32°52' E 152°42'411.7
2018-Jun-20 15:30S 32°56' E 152°39'611.8
2018-Jun-20 14:58S 33°01' E 152°35'712.0
2018-Jun-20 14:25S 33°06' E 152°29'611.7
2018-Jun-20 13:55S 33°11' E 152°25'511.5
2018-Jun-20 13:30S 33°14' E 152°21'4110.6
2018-Jun-20 09:40S 33°49' E 151°56'3 9.0
2018-Jun-20 09:18S 33°52' E 151°54'3 8.7
2018-Jun-20 09:00S 33°54' E 151°52'4 8.6
2018-Jun-20 08:29S 33°58' E 151°49'4 8.5
2018-Jun-20 08:00S 34°01' E 151°46'4 8.3
2018-Jun-20 07:29S 34°05' E 151°43'4 8.5
2018-Jun-20 07:00S 34°08' E 151°41'  
2018-Jun-16 16:35S 34°21' E 151°29'111.0
2018-Jun-16 16:30S 34°20' E 151°30'612.0
2018-Jun-16 16:00S 34°15' E 151°35'612.2
2018-Jun-16 15:30S 34°10' E 151°39'612.0
2018-Jun-16 15:00S 34°05' E 151°43'612.4
2018-Jun-16 14:30S 34°00' E 151°47'612.4
2018-Jun-16 14:00S 33°55' E 151°51'611.9
2018-Jun-16 13:30S 33°50' E 151°55'3611.9
2018-Jun-16 10:27S 33°20' E 152°20'611.6
2018-Jun-16 09:57S 33°15' E 152°24'711.3
2018-Jun-16 09:22S 33°09' E 152°28'411.2
2018-Jun-16 09:00S 33°06' E 152°31'511.2
2018-Jun-16 08:30S 33°02' E 152°34'611.3
2018-Jun-16 08:00S 32°57' E 152°38'611.6
2018-Jun-16 07:30S 32°52' E 152°42'611.3
2018-Jun-16 07:00S 32°47' E 152°46'611.9
2018-Jun-16 06:30S 32°42' E 152°49'612.1
2018-Jun-16 06:00S 32°36' E 152°51'30813.8
2018-Jun-15 07:46S 27°35' E 154°05'  

Dump ship's entire track history